LIRELIPA

Guest
Details From LIRE - Pratica Di Mare
To LIPA - Aviano Ab
Flight Number -
Tags Generated
Created
Modified
Stats Distance 262 nm / 485 km
Max Altitude 0 ft / 0 m
Waypoints 3
Social Downloads 0
Likes 0
Share VATSIM

Download

Looking for another format? Having issues loading an existing format? Contact us
Advertisement - Login to hide

Notes

Generated

Route

LIRE R1259 LIPA

ID Type Via Altitude Latitude Longitude Leg Dist Tot Dist Heading (true) Name
O LIRE APT - 0 ft / 0 m 41.66242˚ 12.43448˚ - 0 nm - -
R1259 FIX - 0 ft / 0 m 46.02333˚ 12.58389˚ 261 nm 261 nm 1° / 1° -
O LIPA APT - 0 ft / 0 m 46.02333˚ 12.58389˚ 0 nm 261 nm 0° / 180° -

Altitude Profile

Advertisement - Login to hide

Weather


0- 5 10 15 20 25 30 35+ Temperature / ° C

Clouds and Precipitation
Forecast for 2017-12-13 00:00 UTC. Updated an hour ago

Ground ~20,000 ft ~40,000 ft Winds

LIRE

Details ICAO LIRE
Name Pratica Di Mare
Region Italy
Timezone Europe/Rome (UTC+1.0)
Stats Elevation 39 ft / 12 m (AMSL)
Location 41.654524° 12.445184°
Runways 2
Magnetic Variation 3.023° E

METAR

LIRE 122155Z 29007KT 4000 RA BR FEW010 SCT020 BKN035 14/14 Q1016 RERA RMK OVC VIS MIN 4000 WIND THR13 32008KT WIND THR31 /////KT GRN

Decode

TAF

Not found

Departure Runways

ID Width Length Bearing (true) Bearing (mag) Surface Threshold Offset Overrun Length
13 148 ft / 45 m 8,340 ft / 2,542 m 130.05° 127.03° Asphalt 500 ft / 152 m 0 ft / 0 m
13L 98 ft / 30 m 8,135 ft / 2,479 m 130.02° 127.00° Asphalt 430 ft / 131 m 0 ft / 0 m
31 148 ft / 45 m 8,340 ft / 2,542 m 310.07° 307.05° Asphalt 350 ft / 107 m 700 ft / 213 m
31R 98 ft / 30 m 8,135 ft / 2,479 m 310.03° 307.01° Asphalt 430 ft / 131 m 0 ft / 0 m

LIPA

Details ICAO LIPA (AVB)
Name AVIANO AB
Region Italy
Timezone Europe/Rome (UTC+1.0)
Stats Elevation 410 ft / 125 m (AMSL)
Location 46.031111° 12.596389°
Runways 1
Magnetic Variation 3.254° E

METAR

LIPA 122055Z 05006KT 9999 SCT080 07/06 Q1012 RMK SCT VIS MIN 9999 WIND THR05 /////KT WIND THR23 /////KT A2991 BLU

Decode

TAF

Not found

Destination Runways

ID Width Length Bearing (true) Bearing (mag) Surface Threshold Offset Overrun Length
05 144 ft / 44 m 8,505 ft / 2,592 m 48.12° 44.87° Asphalt 0 ft / 0 m 845 ft / 258 m
23 144 ft / 44 m 8,505 ft / 2,592 m 228.14° 224.89° Asphalt 0 ft / 0 m 919 ft / 280 m

Approach Navaids

Runway Type Ident Frequency Range Bearing (true) Bearing (mag) Slope Elevation
05 Localiser IAVI 109.50 MHz 18 nm / 33 km 48.12° 44.87° - 410 ft / 125 m (AMSL)